Time;durP1;ratioP1;P1;durP2;ratioP2;P2;SDS_P1;SDS_P2;PMS_P1;PMS_P2;Temp;Humidity;BMP_temperature;BMP_pressure;BME280_temperature;BME280_humidity;BME280_pressure;Samples;Min_cycle;Max_cycle;Signal;HPM_P1;HPM_P2
2022/11/15 00:00:16;;;;;;;68.43;32.33;;;;;;;;;;4993228;28;20160;-76
2022/11/15 00:02:42;;;;;;;71.03;33.17;;;;;;;;;;4991543;28;20057;-76
2022/11/15 00:05:07;;;;;;;70.60;32.10;;;;;;;;;;4992530;28;20392;-77
2022/11/15 00:07:33;;;;;;;69.23;33.07;;;;;;;;;;4991138;28;20040;-75
2022/11/15 00:09:58;;;;;;;81.93;34.97;;;;;;;;;;4991460;28;20037;-78
2022/11/15 00:12:24;;;;;;;83.33;35.27;;;;;;;;;;4991107;28;20041;-76
2022/11/15 00:14:49;;;;;;;77.07;33.00;;;;;;;;;;4992859;28;20042;-76
2022/11/15 00:17:15;;;;;;;64.90;30.53;;;;;;;;;;4991152;28;20346;-74
2022/11/15 00:19:40;;;;;;;64.70;29.73;;;;;;;;;;4993140;28;20058;-75
2022/11/15 00:22:05;;;;;;;64.13;30.23;;;;;;;;;;4992728;28;20034;-75
2022/11/15 00:24:31;;;;;;;67.03;30.47;;;;;;;;;;4991770;28;20034;-77
2022/11/15 00:26:57;;;;;;;57.13;29.87;;;;;;;;;;5007420;28;20449;-75
2022/11/15 00:29:22;;;;;;;61.67;29.23;;;;;;;;;;5011911;28;20033;-76
2022/11/15 00:31:48;;;;;;;68.00;30.13;;;;;;;;;;5010902;28;20084;-75
2022/11/15 00:34:13;;;;;;;65.90;29.03;;;;;;;;;;5012059;28;20038;-75
2022/11/15 00:36:39;;;;;;;73.83;31.37;;;;;;;;;;5012278;28;20108;-75
2022/11/15 00:39:07;;;;;;;67.90;28.90;;;;;;;;;;5012023;28;20026;-78
2022/11/15 00:41:32;;;;;;;70.40;28.07;;;;;;;;;;5011613;28;20100;-76
2022/11/15 00:43:58;;;;;;;67.07;28.63;;;;;;;;;;5010527;28;20022;-77
2022/11/15 00:46:23;;;;;;;65.50;28.60;;;;;;;;;;5011213;28;20030;-76
2022/11/15 00:48:49;;;;;;;76.17;30.70;;;;;;;;;;5010578;28;20037;-76
2022/11/15 00:51:14;;;;;;;80.27;30.20;;;;;;;;;;5011478;28;20105;-76
2022/11/15 00:53:40;;;;;;;79.30;32.00;;;;;;;;;;5011677;28;20064;-77
2022/11/15 00:56:05;;;;;;;77.77;31.17;;;;;;;;;;5011577;28;20032;-76
2022/11/15 00:58:31;;;;;;;81.37;30.77;;;;;;;;;;5010032;28;20474;-76
2022/11/15 01:01:04;;;;;;;76.40;31.90;;;;;;;;;;5011890;28;20084;-75
2022/11/15 01:03:33;;;;;;;80.17;33.47;;;;;;;;;;5010633;28;20363;-76
2022/11/15 01:06:02;;;;;;;81.53;30.90;;;;;;;;;;5011595;28;20440;-76
2022/11/15 01:08:27;;;;;;;78.67;31.33;;;;;;;;;;5009926;28;20046;-76
2022/11/15 01:10:52;;;;;;;71.93;30.47;;;;;;;;;;5010077;28;20430;-76
2022/11/15 01:13:18;;;;;;;71.27;28.93;;;;;;;;;;5009793;28;20038;-76
2022/11/15 01:15:43;;;;;;;67.17;27.93;;;;;;;;;;5011325;28;20103;-76
2022/11/15 01:18:09;;;;;;;68.63;29.00;;;;;;;;;;5008871;28;20030;-75
2022/11/15 01:20:42;;;;;;;73.80;28.73;;;;;;;;;;5010230;28;20141;-76
2022/11/15 01:23:07;;;;;;;71.30;26.70;;;;;;;;;;5011256;28;20057;-76
2022/11/15 01:25:33;;;;;;;60.10;24.80;;;;;;;;;;5007936;28;20053;-75
2022/11/15 01:27:58;;;;;;;77.37;29.57;;;;;;;;;;4990214;28;20561;-77
2022/11/15 01:30:23;;;;;;;86.10;31.80;;;;;;;;;;4989610;28;20133;-78
2022/11/15 01:32:49;;;;;;;79.50;29.90;;;;;;;;;;4991641;28;20077;-75
2022/11/15 01:35:15;;;;;;;64.77;28.07;;;;;;;;;;4991678;28;20034;-75
2022/11/15 01:37:40;;;;;;;59.43;26.90;;;;;;;;;;4990361;28;20034;-76
2022/11/15 01:40:06;;;;;;;69.87;26.33;;;;;;;;;;4991573;28;20034;-75
2022/11/15 01:42:31;;;;;;;72.50;26.67;;;;;;;;;;4991442;28;20104;-77
2022/11/15 01:44:57;;;;;;;62.93;26.87;;;;;;;;;;4989862;28;20121;-76
2022/11/15 01:47:30;;;;;;;66.70;26.37;;;;;;;;;;4990823;28;20030;-76
2022/11/15 01:50:04;;;;;;;57.17;26.23;;;;;;;;;;4989842;28;20037;-75
2022/11/15 01:52:33;;;;;;;62.17;25.20;;;;;;;;;;4991234;28;20072;-76
2022/11/15 01:55:15;;;;;;;61.47;25.50;;;;;;;;;;4990286;28;20120;-76
2022/11/15 01:57:43;;;;;;;52.28;23.67;;;;;;;;;;4991729;28;20136;-76
2022/11/15 02:00:10;;;;;;;63.53;25.20;;;;;;;;;;4991517;28;20084;-75
2022/11/15 02:02:36;;;;;;;58.90;24.57;;;;;;;;;;4990991;28;20033;-77
2022/11/15 02:05:03;;;;;;;63.77;26.27;;;;;;;;;;4989556;28;20022;-75
2022/11/15 02:07:30;;;;;;;64.67;26.10;;;;;;;;;;4990338;28;20199;-76
2022/11/15 02:09:59;;;;;;;65.60;25.70;;;;;;;;;;4989399;28;20033;-76
2022/11/15 02:12:25;;;;;;;56.77;23.47;;;;;;;;;;4990621;28;20027;-75
2022/11/15 02:14:54;;;;;;;64.33;24.57;;;;;;;;;;4990867;28;20348;-75
2022/11/15 02:17:40;;;;;;;56.70;22.77;;;;;;;;;;4989163;28;20019;-75
2022/11/15 02:20:21;;;;;;;60.97;26.03;;;;;;;;;;4989499;28;20550;-74
2022/11/15 02:23:31;;;;;;;60.58;23.95;;;;;;;;;;4989887;28;20525;-76
2022/11/15 02:26:43;;;;;;;67.30;24.30;;;;;;;;;;4989663;28;20419;-75
2022/11/15 02:29:18;;;;;;;;;;;;;;;;;;4989670;28;20050;-78
2022/11/15 02:32:03;;;;;;;53.50;20.60;;;;;;;;;;4993481;28;20354;-76
2022/11/15 02:34:51;;;;;;;59.23;23.67;;;;;;;;;;4994877;28;20030;-77
2022/11/15 02:37:38;;;;;;;54.30;21.57;;;;;;;;;;4992766;28;20027;-76
2022/11/15 02:40:16;;;;;;;58.03;23.00;;;;;;;;;;5005453;28;20508;-75
2022/11/15 02:45:39;;;;;;;55.93;21.77;;;;;;;;;;5013929;28;20484;-76
2022/11/15 02:48:07;;;;;;;61.43;21.20;;;;;;;;;;5014437;28;20110;-77
2022/11/15 02:50:33;;;;;;;53.27;20.77;;;;;;;;;;5011882;28;20442;-75
2022/11/15 02:52:59;;;;;;;65.37;20.87;;;;;;;;;;5013712;28;20100;-75
2022/11/15 02:55:35;;;;;;;55.37;19.80;;;;;;;;;;5013536;28;20062;-76
2022/11/15 02:58:25;;;;;;;52.97;19.00;;;;;;;;;;5013990;28;20022;-75
2022/11/15 03:01:38;;;;;;;55.50;21.63;;;;;;;;;;5013364;28;20132;-76
2022/11/15 03:04:27;;;;;;;54.57;21.37;;;;;;;;;;4994781;28;20033;-74
2022/11/15 03:07:03;;;;;;;52.20;20.93;;;;;;;;;;5011483;28;20079;-75
2022/11/15 03:09:54;;;;;;;52.87;19.67;;;;;;;;;;5012272;28;20117;-76
2022/11/15 03:12:32;;;;;;;57.15;20.40;;;;;;;;;;5012294;28;20049;-76
2022/11/15 03:15:08;;;;;;;57.47;21.10;;;;;;;;;;5013842;28;20437;-76
2022/11/15 03:17:38;;;;;;;59.73;22.60;;;;;;;;;;5012438;28;20251;-75
2022/11/15 03:20:07;;;;;;;55.93;20.73;;;;;;;;;;5013654;28;20383;-75
2022/11/15 03:22:38;;;;;;;56.60;21.23;;;;;;;;;;5013648;28;20507;-76
2022/11/15 03:25:07;;;;;;;59.35;23.00;;;;;;;;;;5013844;28;20478;-75
2022/11/15 03:27:43;;;;;;;53.53;19.87;;;;;;;;;;5012202;28;20045;-76
2022/11/15 03:30:09;;;;;;;49.53;20.87;;;;;;;;;;5013628;28;20080;-76
2022/11/15 03:32:41;;;;;;;49.83;21.03;;;;;;;;;;5012102;28;20021;-75
2022/11/15 03:35:09;;;;;;;68.97;22.30;;;;;;;;;;5013930;28;20022;-76
2022/11/15 03:37:41;;;;;;;58.20;21.80;;;;;;;;;;5013358;28;20492;-75
2022/11/15 03:40:07;;;;;;;56.90;22.33;;;;;;;;;;5013911;28;20028;-76
2022/11/15 03:42:45;;;;;;;72.90;22.53;;;;;;;;;;5011357;28;20050;-76
2022/11/15 03:45:21;;;;;;;52.77;21.30;;;;;;;;;;5013410;28;20085;-75
2022/11/15 03:48:20;;;;;;;53.67;22.13;;;;;;;;;;5013470;28;20022;-74
2022/11/15 03:50:46;;;;;;;55.37;19.67;;;;;;;;;;5013348;28;20537;-75
2022/11/15 03:53:12;;;;;;;58.43;21.80;;;;;;;;;;5012524;28;20030;-76
2022/11/15 03:55:38;;;;;;;56.67;20.33;;;;;;;;;;5012306;28;20453;-76
2022/11/15 03:58:03;;;;;;;53.83;19.50;;;;;;;;;;5012732;28;20068;-75
2022/11/15 04:00:29;;;;;;;53.37;21.90;;;;;;;;;;5013748;28;20026;-76
2022/11/15 04:02:55;;;;;;;55.73;21.47;;;;;;;;;;5011815;28;20113;-75
2022/11/15 04:05:20;;;;;;;51.93;20.20;;;;;;;;;;5013227;28;20029;-76
2022/11/15 04:07:46;;;;;;;58.03;19.90;;;;;;;;;;5013109;28;20041;-77
2022/11/15 04:10:11;;;;;;;51.93;18.50;;;;;;;;;;5012528;28;20501;-77
2022/11/15 04:12:41;;;;;;;55.97;20.43;;;;;;;;;;5012601;28;20341;-76
2022/11/15 04:15:12;;;;;;;54.17;21.60;;;;;;;;;;5011700;28;20080;-75
2022/11/15 04:17:39;;;;;;;54.43;20.67;;;;;;;;;;5013552;28;20099;-75
2022/11/15 04:25:44;;;;;;;54.03;19.73;;;;;;;;;;5007668;28;20609;-76
2022/11/15 04:28:10;;;;;;;39.30;17.63;;;;;;;;;;4991224;28;20122;-75
2022/11/15 04:30:36;;;;;;;56.53;20.17;;;;;;;;;;4991348;28;20065;-76
2022/11/15 04:33:01;;;;;;;54.77;18.93;;;;;;;;;;4993240;28;20053;-74
2022/11/15 04:35:27;;;;;;;53.87;18.60;;;;;;;;;;4991686;28;20104;-75
2022/11/15 04:37:53;;;;;;;51.33;19.40;;;;;;;;;;4993291;28;20030;-76
2022/11/15 04:40:18;;;;;;;50.10;18.83;;;;;;;;;;4991577;28;20018;-74
2022/11/15 04:42:44;;;;;;;51.03;18.13;;;;;;;;;;4991225;28;20058;-76
2022/11/15 04:45:09;;;;;;;49.33;17.43;;;;;;;;;;4992980;28;20138;-75
2022/11/15 04:47:35;;;;;;;53.80;19.47;;;;;;;;;;4993003;28;20471;-76
2022/11/15 04:50:00;;;;;;;51.73;17.43;;;;;;;;;;4992946;28;20030;-76
2022/11/15 04:52:26;;;;;;;57.50;16.73;;;;;;;;;;4992417;28;20041;-78
2022/11/15 04:54:51;;;;;;;48.77;17.10;;;;;;;;;;4993098;28;20502;-77
2022/11/15 04:57:17;;;;;;;49.77;18.83;;;;;;;;;;4991815;28;20615;-78
2022/11/15 04:59:42;;;;;;;47.10;17.77;;;;;;;;;;4992874;28;20022;-76
2022/11/15 05:02:08;;;;;;;40.47;14.33;;;;;;;;;;4992975;28;20125;-75
2022/11/15 05:04:33;;;;;;;43.80;17.37;;;;;;;;;;4991317;28;20045;-75
2022/11/15 05:06:59;;;;;;;50.27;17.63;;;;;;;;;;4992291;28;20030;-77
2022/11/15 05:09:24;;;;;;;44.03;16.73;;;;;;;;;;4991218;28;20102;-76
2022/11/15 05:11:50;;;;;;;40.67;16.40;;;;;;;;;;4991740;28;20034;-76
2022/11/15 05:14:16;;;;;;;41.33;16.73;;;;;;;;;;4991389;28;20038;-74
2022/11/15 05:16:42;;;;;;;49.87;17.07;;;;;;;;;;4991257;28;20362;-75
2022/11/15 05:19:07;;;;;;;44.87;16.40;;;;;;;;;;4991177;28;20069;-76
2022/11/15 05:21:34;;;;;;;47.80;17.83;;;;;;;;;;4991533;28;20530;-76
2022/11/15 05:23:59;;;;;;;43.83;16.93;;;;;;;;;;4991173;28;20533;-77
2022/11/15 05:26:25;;;;;;;45.37;17.23;;;;;;;;;;5002730;28;20121;-75
2022/11/15 05:28:56;;;;;;;43.07;18.67;;;;;;;;;;5010637;28;20034;-76
2022/11/15 05:31:23;;;;;;;44.00;17.83;;;;;;;;;;5009924;28;20049;-76
2022/11/15 05:33:53;;;;;;;59.17;19.07;;;;;;;;;;5011748;28;20105;-75
2022/11/15 05:36:35;;;;;;;52.67;17.80;;;;;;;;;;5010432;28;20036;-74
2022/11/15 05:39:01;;;;;;;50.30;17.02;;;;;;;;;;5010507;28;20474;-75
2022/11/15 05:41:40;;;;;;;51.53;16.83;;;;;;;;;;5011014;28;20056;-76
2022/11/15 05:44:09;;;;;;;48.17;17.77;;;;;;;;;;5011392;28;20090;-77
2022/11/15 05:46:37;;;;;;;48.80;18.47;;;;;;;;;;5009497;28;20540;-77
2022/11/15 05:49:06;;;;;;;51.03;17.43;;;;;;;;;;5009869;28;20079;-76
2022/11/15 05:51:31;;;;;;;60.40;18.17;;;;;;;;;;5009579;28;20124;-77
2022/11/15 05:53:58;;;;;;;44.33;16.80;;;;;;;;;;5010446;28;20426;-76
2022/11/15 05:56:25;;;;;;;50.67;18.03;;;;;;;;;;5010900;28;20036;-74
2022/11/15 05:58:53;;;;;;;47.93;17.70;;;;;;;;;;5011047;28;20369;-77
2022/11/15 06:01:19;;;;;;;46.60;18.53;;;;;;;;;;5025930;28;20049;-76
2022/11/15 06:03:44;;;;;;;53.67;15.80;;;;;;;;;;5011119;28;20033;-77
2022/11/15 06:06:10;;;;;;;36.10;14.53;;;;;;;;;;5011058;28;20034;-78
2022/11/15 06:08:35;;;;;;;38.73;15.50;;;;;;;;;;5012145;28;20088;-76
2022/11/15 06:11:07;;;;;;;76.83;26.13;;;;;;;;;;5012174;28;20089;-79
2022/11/15 06:13:33;;;;;;;42.67;17.63;;;;;;;;;;5011665;28;20030;-78
2022/11/15 06:15:59;;;;;;;41.57;15.67;;;;;;;;;;5011547;28;20083;-77
2022/11/15 06:18:25;;;;;;;35.90;14.93;;;;;;;;;;5010907;28;20026;-78
2022/11/15 06:20:51;;;;;;;38.20;15.63;;;;;;;;;;5004098;28;20544;-79
2022/11/15 06:23:16;;;;;;;42.63;15.33;;;;;;;;;;5004702;28;20045;-79
2022/11/15 06:25:42;;;;;;;41.70;17.70;;;;;;;;;;5017922;28;20529;-78
2022/11/15 06:28:08;;;;;;;37.97;15.53;;;;;;;;;;5003947;28;20033;-78
2022/11/15 06:30:33;;;;;;;39.00;15.77;;;;;;;;;;5010017;28;20033;-79
2022/11/15 06:33:01;;;;;;;37.87;15.50;;;;;;;;;;5009875;28;20443;-80
2022/11/15 06:35:27;;;;;;;35.17;15.90;;;;;;;;;;5004819;28;20396;-78
2022/11/15 06:37:53;;;;;;;38.33;15.07;;;;;;;;;;5011067;28;20022;-77
2022/11/15 06:40:18;;;;;;;42.20;14.53;;;;;;;;;;5019050;28;20403;-75
2022/11/15 06:42:44;;;;;;;34.37;14.93;;;;;;;;;;5009128;28;20050;-77
2022/11/15 06:45:10;;;;;;;38.97;15.57;;;;;;;;;;5018000;28;20082;-76
2022/11/15 06:47:35;;;;;;;39.27;16.93;;;;;;;;;;5030718;28;20664;-76
2022/11/15 06:50:00;;;;;;;36.57;14.97;;;;;;;;;;5021399;28;20025;-75
2022/11/15 06:52:26;;;;;;;35.67;14.33;;;;;;;;;;5010812;28;20478;-75
2022/11/15 06:54:52;;;;;;;36.33;15.50;;;;;;;;;;5001732;28;20026;-76
2022/11/15 06:57:17;;;;;;;45.73;21.40;;;;;;;;;;4997819;28;20026;-75
2022/11/15 06:59:43;;;;;;;36.87;15.40;;;;;;;;;;5006540;28;20028;-74
2022/11/15 07:02:13;;;;;;;29.43;13.50;;;;;;;;;;5025296;28;20393;-78
2022/11/15 07:04:38;;;;;;;37.20;15.37;;;;;;;;;;5015547;28;20029;-77
2022/11/15 07:07:06;;;;;;;33.20;14.87;;;;;;;;;;5011708;28;20037;-78
2022/11/15 07:09:31;;;;;;;32.70;14.33;;;;;;;;;;5011711;28;20034;-76
2022/11/15 07:11:57;;;;;;;35.83;14.07;;;;;;;;;;5015145;28;20029;-75
2022/11/15 07:14:22;;;;;;;36.97;14.40;;;;;;;;;;5018260;28;20041;-73
2022/11/15 07:16:49;;;;;;;32.90;14.90;;;;;;;;;;5009568;28;20081;-77
2022/11/15 07:19:14;;;;;;;34.87;13.83;;;;;;;;;;5021672;28;20037;-76
2022/11/15 07:21:41;;;;;;;34.87;14.17;;;;;;;;;;5013458;28;20025;-75
2022/11/15 07:24:06;;;;;;;29.43;14.40;;;;;;;;;;5013349;28;20056;-75
2022/11/15 07:26:32;;;;;;;30.07;13.50;;;;;;;;;;5008190;28;20061;-75
2022/11/15 07:28:58;;;;;;;33.90;15.20;;;;;;;;;;5007081;28;20144;-75
2022/11/15 07:31:23;;;;;;;37.30;14.23;;;;;;;;;;5009328;28;20021;-77
2022/11/15 07:33:49;;;;;;;31.77;15.13;;;;;;;;;;5011867;28;20076;-74
2022/11/15 07:36:15;;;;;;;36.90;15.30;;;;;;;;;;5010755;28;20026;-77
2022/11/15 07:38:40;;;;;;;32.53;14.73;;;;;;;;;;5010580;28;20061;-75
2022/11/15 07:41:06;;;;;;;35.13;14.60;;;;;;;;;;5017386;28;20104;-76
2022/11/15 07:43:33;;;;;;;38.97;14.67;;;;;;;;;;5022214;28;20025;-75
2022/11/15 07:46:03;;;;;;;31.03;14.57;;;;;;;;;;5014208;28;20030;-77
2022/11/15 07:48:30;;;;;;;34.70;14.47;;;;;;;;;;5009973;28;20057;-76
2022/11/15 07:50:55;;;;;;;39.10;15.30;;;;;;;;;;5014790;28;20522;-74
2022/11/15 07:53:21;;;;;;;34.87;13.83;;;;;;;;;;5016203;28;20080;-75
2022/11/15 07:55:46;;;;;;;31.80;16.17;;;;;;;;;;5012891;28;20052;-75
2022/11/15 07:58:12;;;;;;;38.07;15.67;;;;;;;;;;5006433;28;20061;-77
2022/11/15 08:00:38;;;;;;;33.80;14.10;;;;;;;;;;5021192;28;20021;-76
2022/11/15 08:03:12;;;;;;;32.50;14.10;;;;;;;;;;5011791;28;20560;-75
2022/11/15 08:05:39;;;;;;;33.27;15.10;;;;;;;;;;5008314;28;20041;-74
2022/11/15 08:08:05;;;;;;;37.13;16.83;;;;;;;;;;5012838;28;20176;-77
2022/11/15 08:10:31;;;;;;;31.60;14.07;;;;;;;;;;5009899;28;20037;-75
2022/11/15 08:13:05;;;;;;;34.40;16.07;;;;;;;;;;5006567;28;20076;-75
2022/11/15 08:15:31;;;;;;;35.17;14.83;;;;;;;;;;5007200;28;20065;-78
2022/11/15 08:18:00;;;;;;;35.87;16.50;;;;;;;;;;5010544;28;20021;-74
2022/11/15 08:20:30;;;;;;;28.33;13.87;;;;;;;;;;5015984;28;20080;-77
2022/11/15 08:23:01;;;;;;;35.87;14.87;;;;;;;;;;5010238;28;20030;-75
2022/11/15 08:25:28;;;;;;;32.03;14.63;;;;;;;;;;5006715;28;20036;-76
2022/11/15 08:27:56;;;;;;;34.90;15.77;;;;;;;;;;5018385;28;20025;-77
2022/11/15 08:30:22;;;;;;;38.50;14.50;;;;;;;;;;5027459;28;20048;-77
2022/11/15 08:32:49;;;;;;;39.23;16.60;;;;;;;;;;5011248;28;20022;-73
2022/11/15 08:35:15;;;;;;;35.87;15.13;;;;;;;;;;5004316;28;20113;-73
2022/11/15 08:37:40;;;;;;;28.90;14.60;;;;;;;;;;5009853;28;20149;-74
2022/11/15 08:40:06;;;;;;;34.73;16.03;;;;;;;;;;5003693;28;20026;-75
2022/11/15 08:42:33;;;;;;;33.80;16.47;;;;;;;;;;5016439;28;20505;-75
2022/11/15 08:44:59;;;;;;;32.93;14.23;;;;;;;;;;5010408;28;20117;-76
2022/11/15 08:47:24;;;;;;;38.63;16.80;;;;;;;;;;5006123;28;20123;-74
2022/11/15 08:49:50;;;;;;;42.93;19.17;;;;;;;;;;5012343;28;20038;-74
2022/11/15 08:52:15;;;;;;;35.17;15.70;;;;;;;;;;5009874;28;20081;-74
2022/11/15 08:54:41;;;;;;;36.27;16.40;;;;;;;;;;5017971;28;20033;-74
2022/11/15 08:57:07;;;;;;;49.37;20.53;;;;;;;;;;5015596;28;20026;-76
2022/11/15 08:59:32;;;;;;;34.73;16.13;;;;;;;;;;5015079;28;20026;-75
2022/11/15 09:01:58;;;;;;;38.57;16.60;;;;;;;;;;5008987;28;20042;-75
2022/11/15 09:04:23;;;;;;;34.97;15.03;;;;;;;;;;5007649;28;20037;-75
2022/11/15 09:06:49;;;;;;;35.77;17.37;;;;;;;;;;5007152;28;20049;-76
2022/11/15 09:09:14;;;;;;;49.37;24.13;;;;;;;;;;4991035;28;20046;-76
2022/11/15 09:11:40;;;;;;;38.83;17.43;;;;;;;;;;5006802;28;20032;-76
2022/11/15 09:14:05;;;;;;;35.43;15.03;;;;;;;;;;5004334;28;20486;-77
2022/11/15 09:16:31;;;;;;;36.10;15.63;;;;;;;;;;5006920;28;20585;-76
2022/11/15 09:18:57;;;;;;;35.33;15.70;;;;;;;;;;5007783;28;20022;-75
2022/11/15 09:21:22;;;;;;;33.57;16.13;;;;;;;;;;5006205;28;20371;-75
2022/11/15 09:23:52;;;;;;;34.40;16.17;;;;;;;;;;5006286;28;20046;-76
2022/11/15 09:26:20;;;;;;;37.50;16.00;;;;;;;;;;4994374;28;20758;-76
2022/11/15 09:28:45;;;;;;;31.63;15.13;;;;;;;;;;5010297;28;20374;-75
2022/11/15 09:31:11;;;;;;;33.03;16.37;;;;;;;;;;5008405;28;20030;-78
2022/11/15 09:33:37;;;;;;;35.57;16.97;;;;;;;;;;5017409;28;20064;-75
2022/11/15 09:36:09;;;;;;;33.30;16.70;;;;;;;;;;5008159;28;20030;-76
2022/11/15 09:38:35;;;;;;;32.13;16.03;;;;;;;;;;5018126;28;20732;-76
2022/11/15 09:41:13;;;;;;;32.93;14.27;;;;;;;;;;5006610;28;20112;-74
2022/11/15 09:44:03;;;;;;;30.17;15.50;;;;;;;;;;5006854;28;20026;-75
2022/11/15 09:46:50;;;;;;;29.67;14.10;;;;;;;;;;5009037;28;20124;-76
2022/11/15 09:49:19;;;;;;;31.00;14.97;;;;;;;;;;5007835;28;20026;-77
2022/11/15 09:51:49;;;;;;;35.43;15.77;;;;;;;;;;5006942;28;20046;-76
2022/11/15 09:54:35;;;;;;;31.90;14.30;;;;;;;;;;4999981;28;20044;-79
2022/11/15 09:57:18;;;;;;;32.47;15.27;;;;;;;;;;5010448;28;20025;-77
2022/11/15 10:00:08;;;;;;;28.67;14.70;;;;;;;;;;4998628;28;20547;-73
2022/11/15 10:02:46;;;;;;;31.90;14.83;;;;;;;;;;5005801;28;20112;-78
2022/11/15 10:05:18;;;;;;;33.93;15.77;;;;;;;;;;5018090;28;20026;-77
2022/11/15 10:07:48;;;;;;;;;;;;;;;;;;5006328;28;20061;-76
2022/11/15 10:10:19;;;;;;;34.30;14.57;;;;;;;;;;5008312;28;19921;-77
2022/11/15 10:12:48;;;;;;;29.80;14.48;;;;;;;;;;5011056;28;20038;-76
2022/11/15 10:15:22;;;;;;;34.33;15.53;;;;;;;;;;5005712;28;20038;-75
2022/11/15 10:18:06;;;;;;;31.33;14.10;;;;;;;;;;5012028;28;20068;-76
2022/11/15 10:20:44;;;;;;;38.83;16.00;;;;;;;;;;5019063;28;20026;-77
2022/11/15 10:23:16;;;;;;;38.97;16.53;;;;;;;;;;5008503;28;20521;-74
2022/11/15 10:25:41;;;;;;;30.85;14.75;;;;;;;;;;5010717;28;20036;-75
2022/11/15 10:28:16;;;;;;;29.93;15.90;;;;;;;;;;5005083;28;20029;-75
2022/11/15 10:31:27;;;;;;;30.53;15.43;;;;;;;;;;5008279;28;20022;-76
2022/11/15 10:34:19;;;;;;;31.43;15.57;;;;;;;;;;5007038;28;20456;-76
2022/11/15 10:36:58;;;;;;;31.63;16.73;;;;;;;;;;5006728;28;20046;-78
2022/11/15 10:39:25;;;;;;;32.87;16.87;;;;;;;;;;5009932;28;20030;-76
2022/11/15 10:41:51;;;;;;;30.20;15.40;;;;;;;;;;5008222;28;20062;-81
2022/11/15 10:44:26;;;;;;;37.23;17.23;;;;;;;;;;5000722;28;20093;-76
2022/11/15 10:47:04;;;;;;;37.53;19.63;;;;;;;;;;5006920;28;20064;-79
2022/11/15 10:49:33;;;;;;;36.30;16.30;;;;;;;;;;5009791;28;20352;-78
2022/11/15 10:52:11;;;;;;;29.30;15.43;;;;;;;;;;4999288;28;20045;-77
2022/11/15 10:54:55;;;;;;;33.60;15.37;;;;;;;;;;5031348;28;20557;-79
2022/11/15 10:57:24;;;;;;;33.73;15.20;;;;;;;;;;5009548;28;20037;-78
2022/11/15 10:59:54;;;;;;;27.97;15.77;;;;;;;;;;5011023;28;20030;-76
2022/11/15 11:03:07;;;;;;;30.30;15.53;;;;;;;;;;5007530;28;20103;-78
2022/11/15 11:05:39;;;;;;;35.00;17.23;;;;;;;;;;4999201;28;20046;-78
2022/11/15 11:08:25;;;;;;;40.58;19.98;;;;;;;;;;4970331;28;20061;-77
2022/11/15 11:10:56;;;;;;;38.13;17.50;;;;;;;;;;4995802;28;20052;-78
2022/11/15 11:13:27;;;;;;;36.70;17.80;;;;;;;;;;5008554;28;20380;-82
2022/11/15 11:15:59;;;;;;;38.30;17.73;;;;;;;;;;5006101;28;20125;-79
2022/11/15 11:18:34;;;;;;;37.97;17.60;;;;;;;;;;5007364;28;20549;-78
2022/11/15 11:21:08;;;;;;;40.83;18.20;;;;;;;;;;4994107;28;20169;-79
2022/11/15 11:24:25;;;;;;;39.23;17.60;;;;;;;;;;5008190;28;20454;-78
2022/11/15 11:27:18;;;;;;;33.17;16.87;;;;;;;;;;4994031;28;20041;-80
2022/11/15 11:30:12;;;;;;;35.80;17.90;;;;;;;;;;5006325;28;20092;-78
2022/11/15 11:33:08;;;;;;;38.77;18.03;;;;;;;;;;5049175;28;20080;-79
2022/11/15 11:35:46;;;;;;;40.83;18.30;;;;;;;;;;5020317;28;20104;-78
2022/11/15 11:38:32;;;;;;;40.97;17.60;;;;;;;;;;5023341;28;20092;-78
2022/11/15 11:41:12;;;;;;;37.03;18.10;;;;;;;;;;5036566;28;20053;-78
2022/11/15 11:43:44;;;;;;;37.17;18.00;;;;;;;;;;5034656;28;20095;-79
2022/11/15 11:46:34;;;;;;;35.92;18.75;;;;;;;;;;5023070;28;20033;-81
2022/11/15 11:49:05;;;;;;;46.50;18.60;;;;;;;;;;5023412;28;20187;-80
2022/11/15 11:51:41;;;;;;;47.10;18.47;;;;;;;;;;5031181;28;20219;-79
2022/11/15 11:54:16;;;;;;;46.40;19.23;;;;;;;;;;5014582;28;20260;-78
2022/11/15 11:56:45;;;;;;;42.93;18.37;;;;;;;;;;5014161;28;20033;-79
2022/11/15 11:59:19;;;;;;;46.50;20.83;;;;;;;;;;5014412;28;20026;-79
2022/11/15 12:01:45;;;;;;;45.03;19.77;;;;;;;;;;5032867;28;20041;-79
2022/11/15 12:04:20;;;;;;;51.80;21.33;;;;;;;;;;5032442;28;20473;-78
2022/11/15 12:06:58;;;;;;;43.50;18.63;;;;;;;;;;5030779;28;20041;-80
2022/11/15 12:09:53;;;;;;;43.60;20.17;;;;;;;;;;5002667;28;20362;-81
2022/11/15 12:12:29;;;;;;;49.67;23.00;;;;;;;;;;4993470;28;20022;-78
2022/11/15 12:15:09;;;;;;;42.37;19.93;;;;;;;;;;5008613;28;20034;-79
2022/11/15 12:17:39;;;;;;;35.37;17.13;;;;;;;;;;5008060;28;20049;-77
2022/11/15 12:20:14;;;;;;;45.77;19.13;;;;;;;;;;4999602;28;20018;-79
2022/11/15 12:22:45;;;;;;;43.47;18.43;;;;;;;;;;5015272;28;20120;-80
2022/11/15 12:25:22;;;;;;;44.08;18.65;;;;;;;;;;5011199;28;20109;-80
2022/11/15 12:28:15;;;;;;;43.10;19.07;;;;;;;;;;5007990;28;20048;-78
2022/11/15 12:31:09;;;;;;;42.03;17.40;;;;;;;;;;5012182;28;20045;-79
2022/11/15 12:33:41;;;;;;;47.70;19.33;;;;;;;;;;5014023;28;20034;-79
2022/11/15 12:36:29;;;;;;;53.60;24.90;;;;;;;;;;5013317;28;20021;-78
2022/11/15 12:38:59;;;;;;;47.27;19.37;;;;;;;;;;5011638;28;20096;-81
2022/11/15 12:41:28;;;;;;;48.57;20.40;;;;;;;;;;5011060;28;20498;-80
2022/11/15 12:43:54;;;;;;;40.87;19.10;;;;;;;;;;5012617;28;20030;-80
2022/11/15 12:46:29;;;;;;;46.37;20.90;;;;;;;;;;5011894;28;20038;-78
2022/11/15 12:48:58;;;;;;;45.47;20.60;;;;;;;;;;5012543;28;20042;-78
2022/11/15 12:51:43;;;;;;;43.10;20.70;;;;;;;;;;5015585;28;20032;-80
2022/11/15 12:54:23;;;;;;;52.07;21.33;;;;;;;;;;5009532;28;20037;-79
2022/11/15 12:57:03;;;;;;;44.57;20.93;;;;;;;;;;5013051;28;20025;-81
2022/11/15 12:59:51;;;;;;;46.03;20.20;;;;;;;;;;5015844;28;20342;-80
2022/11/15 13:02:23;;;;;;;49.37;20.93;;;;;;;;;;5008069;28;20037;-79
2022/11/15 13:04:51;;;;;;;50.50;22.85;;;;;;;;;;5010889;28;20466;-77
2022/11/15 13:07:34;;;;;;;42.23;20.20;;;;;;;;;;5013417;28;20110;-78
2022/11/15 13:10:20;;;;;;;46.83;21.60;;;;;;;;;;5011052;28;20501;-78
2022/11/15 13:12:51;;;;;;;49.17;21.63;;;;;;;;;;5012012;28;20428;-80
2022/11/15 13:15:45;;;;;;;47.90;24.00;;;;;;;;;;5029533;28;20029;-79
2022/11/15 13:18:23;;;;;;;66.33;38.63;;;;;;;;;;5010404;28;20414;-79
2022/11/15 13:20:48;;;;;;;46.80;22.40;;;;;;;;;;5017355;28;20049;-78
2022/11/15 13:23:16;;;;;;;48.83;21.47;;;;;;;;;;5010809;28;20065;-78
2022/11/15 13:26:10;;;;;;;50.77;20.93;;;;;;;;;;5031601;28;20028;-79
2022/11/15 13:28:41;;;;;;;42.47;19.70;;;;;;;;;;5012109;28;20029;-80
2022/11/15 13:31:39;;;;;;;41.95;20.30;;;;;;;;;;5012278;28;20014;-80
2022/11/15 13:34:29;;;;;;;47.93;22.07;;;;;;;;;;5009985;28;20065;-78
2022/11/15 13:36:55;;;;;;;41.33;18.90;;;;;;;;;;5015427;28;20053;-76
2022/11/15 13:39:37;;;;;;;38.83;19.67;;;;;;;;;;5017377;28;20057;-79
2022/11/15 13:42:03;;;;;;;35.40;18.58;;;;;;;;;;5027638;28;20056;-78
2022/11/15 13:44:32;;;;;;;42.40;19.97;;;;;;;;;;5022418;28;20037;-79
2022/11/15 13:47:15;;;;;;;42.17;18.93;;;;;;;;;;5016322;28;20099;-80
2022/11/15 13:49:41;;;;;;;42.93;19.40;;;;;;;;;;4992133;28;20046;-77
2022/11/15 13:52:12;;;;;;;59.93;22.53;;;;;;;;;;5009631;28;20045;-77
2022/11/15 13:54:37;;;;;;;47.33;18.87;;;;;;;;;;5024836;28;20444;-78
2022/11/15 13:57:13;;;;;;;43.57;19.67;;;;;;;;;;5026824;28;20025;-78
2022/11/15 13:59:49;;;;;;;44.03;20.80;;;;;;;;;;5017867;28;20041;-78
2022/11/15 14:02:18;;;;;;;51.07;20.03;;;;;;;;;;5023827;28;20042;-80
2022/11/15 14:04:55;;;;;;;41.63;20.97;;;;;;;;;;5007399;28;20135;-79
2022/11/15 14:07:23;;;;;;;41.67;18.60;;;;;;;;;;5018883;28;20065;-78
2022/11/15 14:09:49;;;;;;;52.37;20.80;;;;;;;;;;5018751;28;20489;-79
2022/11/15 14:12:26;;;;;;;46.30;20.37;;;;;;;;;;5021785;28;20121;-79
2022/11/15 14:14:52;;;;;;;49.37;20.00;;;;;;;;;;5025236;28;20148;-79
2022/11/15 14:17:34;;;;;;;45.33;18.10;;;;;;;;;;5027569;28;20466;-81
2022/11/15 14:20:00;;;;;;;45.47;19.23;;;;;;;;;;5016554;28;20022;-80
2022/11/15 14:22:30;;;;;;;41.47;17.27;;;;;;;;;;5001655;28;20091;-81
2022/11/15 14:25:14;;;;;;;41.53;18.63;;;;;;;;;;5013008;28;20026;-80
2022/11/15 14:27:41;;;;;;;43.23;17.80;;;;;;;;;;5004512;28;20068;-78
2022/11/15 14:30:13;;;;;;;46.70;19.27;;;;;;;;;;5016997;28;20026;-81
2022/11/15 14:32:49;;;;;;;39.93;16.60;;;;;;;;;;5014826;28;20475;-80
2022/11/15 14:35:18;;;;;;;45.53;18.77;;;;;;;;;;5025410;28;20099;-80
2022/11/15 14:37:44;;;;;;;33.00;16.73;;;;;;;;;;5014576;28;20032;-82
2022/11/15 14:40:14;;;;;;;39.90;19.43;;;;;;;;;;5012812;28;20030;-80
2022/11/15 14:42:39;;;;;;;39.70;17.20;;;;;;;;;;4999697;28;20045;-78
2022/11/15 14:45:20;;;;;;;37.90;18.50;;;;;;;;;;5016276;28;20492;-80
2022/11/15 14:47:46;;;;;;;40.03;18.40;;;;;;;;;;5009545;28;20090;-79
2022/11/15 14:50:17;;;;;;;37.37;16.67;;;;;;;;;;5013944;28;20058;-80